createdAt,value
2018-11-11T00:02:17.063Z,41.97
2018-11-11T00:04:48.481Z,40.87
2018-11-11T00:07:21.261Z,41.27
2018-11-11T00:09:52.517Z,39.80
2018-11-11T00:12:27.248Z,37.80
2018-11-11T00:14:59.296Z,39.43
2018-11-11T00:17:29.837Z,40.93
2018-11-11T00:20:01.154Z,40.07
2018-11-11T00:22:33.325Z,39.53
2018-11-11T00:25:04.857Z,39.57
2018-11-11T00:27:41.606Z,38.80
2018-11-11T00:33:06.528Z,39.17
2018-11-11T00:35:38.414Z,38.53
2018-11-11T00:38:09.402Z,38.90
2018-11-11T00:40:41.411Z,39.27
2018-11-11T00:43:16.401Z,37.50
2018-11-11T00:45:49.277Z,37.43
2018-11-11T00:48:20.697Z,37.07
2018-11-11T00:50:57.222Z,34.17
2018-11-11T00:53:30.997Z,37.77
2018-11-11T00:56:07.385Z,35.10
2018-11-11T00:58:40.364Z,35.70
2018-11-11T01:01:14.316Z,38.33
2018-11-11T01:03:45.740Z,35.67
2018-11-11T01:06:16.478Z,35.33
2018-11-11T01:08:48.460Z,37.13
2018-11-11T01:11:19.917Z,35.50
2018-11-11T01:13:51.520Z,39.30
2018-11-11T01:16:23.788Z,37.03
2018-11-11T01:18:55.692Z,36.57
2018-11-11T01:21:27.869Z,35.80
2018-11-11T01:23:58.856Z,37.63
2018-11-11T01:26:31.244Z,37.97
2018-11-11T01:29:02.560Z,37.30
2018-11-11T01:31:33.599Z,38.00
2018-11-11T01:34:04.212Z,38.30
2018-11-11T01:36:41.353Z,38.60
2018-11-11T01:39:12.729Z,39.90
2018-11-11T01:41:44.587Z,39.40
2018-11-11T01:44:17.791Z,38.30
2018-11-11T01:46:48.175Z,38.97
2018-11-11T01:49:18.833Z,34.77
2018-11-11T01:51:49.787Z,40.57
2018-11-11T01:54:22.552Z,38.77
2018-11-11T01:56:55.661Z,38.50
2018-11-11T01:59:26.740Z,38.77
2018-11-11T02:01:59.888Z,37.70
2018-11-11T02:04:30.769Z,37.17
2018-11-11T02:07:05.253Z,38.70
2018-11-11T02:09:36.653Z,38.40
2018-11-11T02:12:08.308Z,38.87
2018-11-11T02:14:38.987Z,39.07
2018-11-11T02:17:11.756Z,36.37
2018-11-11T02:19:42.467Z,37.47
2018-11-11T02:22:21.538Z,39.20
2018-11-11T02:24:54.100Z,36.40
2018-11-11T02:27:25.916Z,37.20
2018-11-11T02:29:59.633Z,38.60
2018-11-11T02:32:30.840Z,38.17
2018-11-11T02:35:04.090Z,39.23
2018-11-11T02:37:34.946Z,40.20
2018-11-11T02:40:10.073Z,36.20
2018-11-11T02:42:41.549Z,39.07
2018-11-11T02:45:14.147Z,37.93
2018-11-11T02:47:58.554Z,41.27
2018-11-11T02:50:32.797Z,37.40
2018-11-11T02:53:03.606Z,37.40
2018-11-11T02:55:36.803Z,40.63
2018-11-11T02:58:09.892Z,40.20
2018-11-11T03:00:41.381Z,39.23
2018-11-11T03:03:14.017Z,37.90
2018-11-11T03:05:44.995Z,36.90
2018-11-11T03:08:18.182Z,36.87
2018-11-11T03:10:50.973Z,37.90
2018-11-11T03:13:22.442Z,39.03
2018-11-11T03:15:55.100Z,36.77
2018-11-11T03:18:26.409Z,37.47
2018-11-11T03:20:58.902Z,37.00
2018-11-11T03:23:30.495Z,40.00
2018-11-11T03:26:03.218Z,38.30
2018-11-11T03:28:34.400Z,39.40
2018-11-11T03:31:08.280Z,36.77
2018-11-11T03:33:41.164Z,36.37
2018-11-11T03:36:11.825Z,36.10
2018-11-11T03:38:42.664Z,35.03
2018-11-11T03:41:24.224Z,35.50
2018-11-11T03:43:55.368Z,37.30
2018-11-11T03:46:28.221Z,33.73
2018-11-11T03:48:59.044Z,35.10
2018-11-11T03:51:30.100Z,35.13
2018-11-11T03:54:06.428Z,36.97
2018-11-11T03:56:37.184Z,35.00
2018-11-11T03:59:08.229Z,36.30
2018-11-11T04:01:41.385Z,37.13
2018-11-11T04:04:12.401Z,37.07
2018-11-11T04:06:45.332Z,35.77
2018-11-11T04:09:16.339Z,37.70
2018-11-11T04:11:48.232Z,37.10
2018-11-11T04:14:20.465Z,39.00
2018-11-11T04:16:51.318Z,36.70
2018-11-11T04:19:22.456Z,38.97
2018-11-11T04:21:53.100Z,39.00
2018-11-11T04:24:23.638Z,38.97
2018-11-11T04:26:59.079Z,37.67
2018-11-11T04:29:30.273Z,35.67
2018-11-11T04:32:04.332Z,38.07
2018-11-11T04:34:37.781Z,36.57
2018-11-11T04:37:09.803Z,35.87
2018-11-11T04:39:41.720Z,36.80
2018-11-11T04:42:14.723Z,35.97
2018-11-11T04:44:45.431Z,37.97
2018-11-11T04:47:18.620Z,37.03
2018-11-11T04:49:52.426Z,37.23
2018-11-11T04:52:25.569Z,39.60
2018-11-11T04:54:56.590Z,38.37
2018-11-11T04:57:29.882Z,38.53
2018-11-11T05:00:03.890Z,38.30
2018-11-11T05:02:38.130Z,39.60
2018-11-11T05:05:11.905Z,41.10
2018-11-11T05:08:02.615Z,41.37
2018-11-11T05:10:36.412Z,38.63
2018-11-11T05:13:08.720Z,39.47
2018-11-11T05:15:40.240Z,40.80
2018-11-11T05:18:10.780Z,38.10
2018-11-11T05:20:42.468Z,40.47
2018-11-11T05:23:14.629Z,41.13
2018-11-11T05:25:46.394Z,39.60
2018-11-11T05:28:18.518Z,38.73
2018-11-11T05:30:51.366Z,39.80
2018-11-11T05:33:23.544Z,37.00
2018-11-11T05:36:00.141Z,37.30
2018-11-11T05:38:33.792Z,35.47
2018-11-11T05:41:09.804Z,38.80
2018-11-11T05:43:45.849Z,37.97
2018-11-11T05:46:21.918Z,37.60
2018-11-11T05:48:57.905Z,40.53
2018-11-11T05:51:34.286Z,40.90
2018-11-11T05:54:10.448Z,35.30
2018-11-11T05:56:46.733Z,37.40
2018-11-11T05:59:22.754Z,39.17
2018-11-11T06:01:58.876Z,36.93
2018-11-11T06:04:35.196Z,25.90
2018-11-11T06:07:11.545Z,26.57
2018-11-11T06:09:47.920Z,24.27
2018-11-11T06:12:24.280Z,24.13
2018-11-11T06:15:00.272Z,22.53
2018-11-11T06:17:36.738Z,20.17
2018-11-11T06:23:03.261Z,20.60
2018-11-11T06:25:59.443Z,23.57
2018-11-11T06:28:35.546Z,19.30
2018-11-11T06:31:11.704Z,28.77
2018-11-11T06:33:47.855Z,31.53
2018-11-11T06:36:24.111Z,32.00
2018-11-11T06:39:00.234Z,34.77
2018-11-11T06:41:36.613Z,36.20
2018-11-11T06:44:12.941Z,36.30
2018-11-11T06:46:49.020Z,35.20
2018-11-11T06:49:25.194Z,34.47
2018-11-11T06:52:01.273Z,35.33
2018-11-11T06:54:37.469Z,35.40
2018-11-11T06:57:13.485Z,36.37
2018-11-11T06:59:49.949Z,37.47
2018-11-11T07:02:38.510Z,37.70
2018-11-11T07:05:15.192Z,38.00
2018-11-11T07:07:54.096Z,36.83
2018-11-11T07:10:31.122Z,38.17
2018-11-11T07:13:07.160Z,38.67
2018-11-11T07:15:43.253Z,40.40
2018-11-11T07:18:19.318Z,40.33
2018-11-11T07:20:55.434Z,39.10
2018-11-11T07:23:31.608Z,41.57
2018-11-11T07:26:07.985Z,40.60
2018-11-11T07:28:44.402Z,40.40
2018-11-11T07:31:20.861Z,38.27
2018-11-11T07:33:57.253Z,39.43
2018-11-11T07:36:33.468Z,39.20
2018-11-11T07:39:11.673Z,38.00
2018-11-11T07:41:47.757Z,38.13
2018-11-11T07:44:24.120Z,37.10
2018-11-11T07:47:00.494Z,37.80
2018-11-11T07:49:36.529Z,37.90
2018-11-11T07:52:12.639Z,40.50
2018-11-11T07:54:48.653Z,39.10
2018-11-11T07:57:24.902Z,38.23
2018-11-11T08:00:01.172Z,38.87
2018-11-11T08:02:37.479Z,38.97
2018-11-11T08:05:13.676Z,38.37
2018-11-11T08:07:55.520Z,38.20
2018-11-11T08:10:42.781Z,38.00
2018-11-11T08:13:18.975Z,39.00
2018-11-11T08:15:55.186Z,40.30
2018-11-11T08:18:31.393Z,40.20
2018-11-11T08:21:07.635Z,39.40
2018-11-11T08:23:43.768Z,39.47
2018-11-11T08:26:19.773Z,37.90
2018-11-11T08:28:55.900Z,39.80
2018-11-11T08:31:32.086Z,37.53
2018-11-11T08:34:08.141Z,36.37
2018-11-11T08:36:44.264Z,38.20
2018-11-11T08:39:21.009Z,38.00
2018-11-11T08:41:58.718Z,39.07
2018-11-11T08:44:34.673Z,37.17
2018-11-11T08:47:10.873Z,37.73
2018-11-11T08:49:46.956Z,36.73
2018-11-11T08:52:23.015Z,36.40
2018-11-11T08:54:59.249Z,36.77
2018-11-11T08:57:35.881Z,33.90
2018-11-11T09:00:15.606Z,33.07
2018-11-11T09:02:59.898Z,33.70
2018-11-11T09:05:36.085Z,31.47
2018-11-11T09:08:12.139Z,33.03
2018-11-11T09:10:48.183Z,33.93
2018-11-11T09:13:24.274Z,31.10
2018-11-11T09:16:00.597Z,32.27
2018-11-11T09:18:36.765Z,29.97
2018-11-11T09:21:13.982Z,30.77
2018-11-11T09:23:50.608Z,30.00
2018-11-11T09:26:27.007Z,31.33
2018-11-11T09:29:03.293Z,36.23
2018-11-11T09:31:39.753Z,25.80
2018-11-11T09:34:16.114Z,22.50
2018-11-11T09:36:52.275Z,22.77
2018-11-11T09:39:28.358Z,23.77
2018-11-11T09:42:05.313Z,21.00
2018-11-11T09:44:41.557Z,21.47
2018-11-11T09:47:18.321Z,19.07
2018-11-11T09:49:54.505Z,17.60
2018-11-11T09:52:30.578Z,18.23
2018-11-11T09:55:08.618Z,16.73
2018-11-11T09:57:45.147Z,18.20
2018-11-11T10:00:33.410Z,18.03
2018-11-11T10:03:15.762Z,16.20
2018-11-11T10:05:56.957Z,16.47
2018-11-11T10:10:40.106Z,17.73
2018-11-11T10:15:24.093Z,19.50
2018-11-11T10:18:17.146Z,17.20
2018-11-11T10:21:02.985Z,15.97
2018-11-11T10:24:00.085Z,17.97
2018-11-11T10:26:40.660Z,18.83
2018-11-11T10:31:26.564Z,19.20
2018-11-11T10:34:07.325Z,16.17
2018-11-11T10:36:47.978Z,16.60
2018-11-11T10:39:35.200Z,17.80
2018-11-11T10:42:18.228Z,14.67
2018-11-11T10:44:59.509Z,16.23
2018-11-11T10:47:52.909Z,15.33
2018-11-11T10:50:32.305Z,19.10
2018-11-11T10:53:08.528Z,17.87
2018-11-11T10:55:44.674Z,18.60
2018-11-11T10:58:21.045Z,17.30
2018-11-11T11:01:02.560Z,16.40
2018-11-11T11:03:38.692Z,17.50
2018-11-11T11:06:15.127Z,16.43
2018-11-11T11:08:56.922Z,18.83
2018-11-11T11:11:33.125Z,17.87
2018-11-11T11:14:09.382Z,19.00
2018-11-11T11:16:45.438Z,17.53
2018-11-11T11:19:21.661Z,17.47
2018-11-11T11:21:55.153Z,16.17
2018-11-11T11:24:25.795Z,16.13
2018-11-11T11:26:58.613Z,17.27
2018-11-11T11:29:32.526Z,17.37
2018-11-11T11:32:05.139Z,15.30
2018-11-11T11:34:35.921Z,17.17
2018-11-11T11:37:06.496Z,15.93
2018-11-11T11:39:37.356Z,16.13
2018-11-11T11:42:10.538Z,17.00
2018-11-11T11:44:44.093Z,17.30
2018-11-11T11:47:22.179Z,16.00
2018-11-11T11:49:52.953Z,17.40
2018-11-11T11:52:30.044Z,20.43
2018-11-11T11:55:01.933Z,19.17
2018-11-11T11:57:34.267Z,19.27
2018-11-11T12:00:09.618Z,18.37
2018-11-11T12:02:50.422Z,50.77
2018-11-11T12:05:40.982Z,34.00
2018-11-11T12:08:13.432Z,25.33
2018-11-11T12:10:46.431Z,23.33
2018-11-11T12:13:19.831Z,24.20
2018-11-11T12:15:54.435Z,23.30
2018-11-11T12:18:26.476Z,22.97
2018-11-11T12:20:58.057Z,22.70
2018-11-11T12:23:29.349Z,22.00
2018-11-11T12:26:06.079Z,23.00
2018-11-11T12:28:42.522Z,22.70
2018-11-11T12:31:13.122Z,22.97
2018-11-11T12:33:51.528Z,23.00
2018-11-11T12:36:24.558Z,22.37
2018-11-11T12:38:55.478Z,25.13
2018-11-11T12:41:29.050Z,22.67
2018-11-11T12:43:59.404Z,24.67
2018-11-11T12:46:36.535Z,31.20
2018-11-11T12:49:10.475Z,27.47
2018-11-11T12:51:44.285Z,29.33
2018-11-11T12:54:15.824Z,27.00
2018-11-11T12:56:46.335Z,29.90
2018-11-11T12:59:21.460Z,30.93
2018-11-11T13:01:52.899Z,31.20
2018-11-11T13:04:26.668Z,29.27
2018-11-11T13:06:58.309Z,28.60
2018-11-11T13:09:29.492Z,31.47
2018-11-11T13:12:01.813Z,33.83
2018-11-11T13:14:33.283Z,35.70
2018-11-11T13:17:07.464Z,37.10
2018-11-11T13:19:40.573Z,36.40
2018-11-11T13:22:16.668Z,35.77
2018-11-11T13:24:50.120Z,34.90
2018-11-11T13:27:23.116Z,36.40
2018-11-11T13:29:55.805Z,35.70
2018-11-11T13:32:28.959Z,33.53
2018-11-11T13:35:03.510Z,37.43
2018-11-11T13:37:36.568Z,37.07
2018-11-11T13:40:13.543Z,40.10
2018-11-11T13:42:58.253Z,40.07
2018-11-11T13:45:29.450Z,42.30
2018-11-11T13:48:02.842Z,41.80
2018-11-11T13:50:34.099Z,39.60
2018-11-11T13:53:04.881Z,38.67
2018-11-11T13:55:37.058Z,42.47
2018-11-11T13:58:07.552Z,42.13
2018-11-11T14:00:44.005Z,41.33
2018-11-11T14:03:15.868Z,39.07
2018-11-11T14:05:47.445Z,37.50
2018-11-11T14:08:20.712Z,42.90
2018-11-11T14:10:52.598Z,45.40
2018-11-11T14:13:27.647Z,44.83
2018-11-11T14:15:58.503Z,43.90
2018-11-11T14:18:31.296Z,45.80
2018-11-11T14:21:02.961Z,46.10
2018-11-11T14:23:36.468Z,44.37
2018-11-11T14:26:10.855Z,46.80
2018-11-11T14:28:42.251Z,49.03
2018-11-11T14:31:24.083Z,49.17
2018-11-11T14:33:57.156Z,49.90
2018-11-11T14:36:28.146Z,45.37
2018-11-11T14:38:59.361Z,44.20
2018-11-11T14:41:31.419Z,42.23
2018-11-11T14:44:05.025Z,44.17
2018-11-11T14:46:43.840Z,42.43
2018-11-11T14:49:23.047Z,43.43
2018-11-11T14:51:56.333Z,42.20
2018-11-11T14:54:29.265Z,43.30
2018-11-11T14:57:02.449Z,40.43
2018-11-11T14:59:33.176Z,44.60
2018-11-11T15:02:03.951Z,44.53
2018-11-11T15:04:40.172Z,39.80
2018-11-11T15:07:14.618Z,46.37
2018-11-11T15:09:53.463Z,48.20
2018-11-11T15:12:27.816Z,48.70
2018-11-11T15:14:58.981Z,43.13
2018-11-11T15:17:30.478Z,41.23
2018-11-11T15:20:06.928Z,40.30
2018-11-11T15:22:39.236Z,43.37
2018-11-11T15:25:14.559Z,40.20
2018-11-11T15:28:05.914Z,41.73
2018-11-11T15:30:40.411Z,41.97
2018-11-11T15:33:14.148Z,42.10
2018-11-11T15:35:48.425Z,41.60
2018-11-11T15:38:22.297Z,44.07
2018-11-11T15:40:56.196Z,45.70
2018-11-11T15:43:30.129Z,41.40
2018-11-11T15:46:02.477Z,42.33
2018-11-11T15:48:34.137Z,39.93
2018-11-11T15:51:06.446Z,40.77
2018-11-11T15:53:38.360Z,41.40
2018-11-11T15:56:11.222Z,40.17
2018-11-11T15:58:41.572Z,35.80
2018-11-11T16:01:22.126Z,35.50
2018-11-11T16:04:02.645Z,38.30
2018-11-11T16:06:36.259Z,36.73
2018-11-11T16:09:12.758Z,36.20
2018-11-11T16:11:43.291Z,35.00
2018-11-11T16:14:16.578Z,34.60
2018-11-11T16:16:47.633Z,33.47
2018-11-11T16:19:21.571Z,34.57
2018-11-11T16:21:54.574Z,32.67
2018-11-11T16:24:27.680Z,30.63
2018-11-11T16:26:59.012Z,33.90
2018-11-11T16:29:31.660Z,36.00
2018-11-11T16:32:02.661Z,33.73
2018-11-11T16:34:35.553Z,39.87
2018-11-11T16:37:06.742Z,41.27
2018-11-11T16:39:38.010Z,34.87
2018-11-11T16:42:09.762Z,37.50
2018-11-11T16:44:42.710Z,35.97
2018-11-11T16:47:13.781Z,38.10
2018-11-11T16:49:47.531Z,41.03
2018-11-11T16:52:19.872Z,44.37
2018-11-11T16:54:50.982Z,43.03
2018-11-11T16:57:27.660Z,41.30
2018-11-11T16:59:58.528Z,42.47
2018-11-11T17:02:31.129Z,42.13
2018-11-11T17:05:02.596Z,41.90
2018-11-11T17:07:33.120Z,46.63
2018-11-11T17:10:05.281Z,41.50
2018-11-11T17:12:44.494Z,40.33
2018-11-11T17:15:27.460Z,40.10
2018-11-11T17:17:58.572Z,39.63
2018-11-11T17:20:39.525Z,41.80
2018-11-11T17:23:11.669Z,39.50
2018-11-11T17:25:45.550Z,40.23
2018-11-11T17:28:19.058Z,41.53
2018-11-11T17:30:49.849Z,40.30
2018-11-11T17:33:22.370Z,41.73
2018-11-11T17:35:55.070Z,38.67
2018-11-11T17:38:29.936Z,42.07
2018-11-11T17:41:05.675Z,40.47
2018-11-11T17:43:37.427Z,42.50
2018-11-11T17:46:07.994Z,41.47
2018-11-11T17:48:41.887Z,41.93
2018-11-11T17:51:13.044Z,42.50
2018-11-11T17:53:43.863Z,40.80
2018-11-11T17:56:24.252Z,43.47
2018-11-11T17:58:55.794Z,44.73
2018-11-11T18:01:27.101Z,43.23
2018-11-11T18:04:06.809Z,46.10
2018-11-11T18:06:37.426Z,47.83
2018-11-11T18:09:13.809Z,74.40
2018-11-11T18:11:51.960Z,70.83
2018-11-11T18:14:23.692Z,65.90
2018-11-11T18:16:58.864Z,68.90
2018-11-11T18:19:30.308Z,56.73
2018-11-11T18:22:03.141Z,50.80
2018-11-11T18:24:33.786Z,47.30
2018-11-11T18:27:13.084Z,54.83
2018-11-11T18:29:47.512Z,53.90
2018-11-11T18:32:20.168Z,56.13
2018-11-11T18:34:50.813Z,56.00
2018-11-11T18:37:26.314Z,50.60
2018-11-11T18:39:57.425Z,49.50
2018-11-11T18:42:30.203Z,49.23
2018-11-11T18:45:02.238Z,51.17
2018-11-11T18:47:33.060Z,48.40
2018-11-11T18:50:11.712Z,47.83
2018-11-11T18:52:56.339Z,46.77
2018-11-11T18:55:30.363Z,45.47
2018-11-11T18:58:16.944Z,48.70
2018-11-11T19:00:49.209Z,46.03
2018-11-11T19:03:22.313Z,53.53
2018-11-11T19:05:55.381Z,49.90
2018-11-11T19:08:26.259Z,47.20
2018-11-11T19:11:02.652Z,51.20
2018-11-11T19:13:35.542Z,48.60
2018-11-11T19:16:09.693Z,50.20
2018-11-11T19:18:42.601Z,46.80
2018-11-11T19:21:13.674Z,44.67
2018-11-11T19:23:46.353Z,49.27
2018-11-11T19:26:17.491Z,45.50
2018-11-11T19:28:53.193Z,78.57
2018-11-11T19:31:23.801Z,63.03
2018-11-11T19:33:54.588Z,55.03
2018-11-11T19:36:27.585Z,49.10
2018-11-11T19:38:58.410Z,47.47
2018-11-11T19:41:31.991Z,45.93
2018-11-11T19:44:02.873Z,47.53
2018-11-11T19:46:36.096Z,43.60
2018-11-11T19:49:13.756Z,44.23
2018-11-11T19:51:48.960Z,46.40
2018-11-11T19:54:19.608Z,48.07
2018-11-11T19:56:50.645Z,52.03
2018-11-11T19:59:24.493Z,49.47
2018-11-11T20:01:57.637Z,47.27
2018-11-11T20:04:30.826Z,50.10
2018-11-11T20:07:03.979Z,55.47
2018-11-11T20:09:35.869Z,57.67
2018-11-11T20:12:08.952Z,47.07
2018-11-11T20:14:39.691Z,48.70
2018-11-11T20:17:10.618Z,50.60
2018-11-11T20:19:44.257Z,48.67
2018-11-11T20:22:16.469Z,43.43
2018-11-11T20:24:53.745Z,45.90
2018-11-11T20:27:29.528Z,46.87
2018-11-11T20:30:09.835Z,47.13
2018-11-11T20:32:42.089Z,46.97
2018-11-11T20:37:58.112Z,48.90
2018-11-11T20:40:29.371Z,46.17
2018-11-11T20:43:11.711Z,47.80
2018-11-11T20:45:43.926Z,46.73
2018-11-11T20:48:15.772Z,47.83
2018-11-11T20:50:46.302Z,51.53
2018-11-11T20:53:19.660Z,53.40
2018-11-11T20:55:53.160Z,49.30
2018-11-11T20:58:23.908Z,48.03
2018-11-11T21:00:56.152Z,47.00
2018-11-11T21:03:27.986Z,44.53
2018-11-11T21:05:59.084Z,44.77
2018-11-11T21:08:30.988Z,47.00
2018-11-11T21:11:03.108Z,45.80
2018-11-11T21:13:34.030Z,50.07
2018-11-11T21:16:06.193Z,45.87
2018-11-11T21:18:36.814Z,46.83
2018-11-11T21:21:07.782Z,48.30
2018-11-11T21:23:40.937Z,49.70
2018-11-11T21:26:14.040Z,51.70
2018-11-11T21:28:47.020Z,51.60
2018-11-11T21:31:30.414Z,48.60
2018-11-11T21:34:01.925Z,51.20
2018-11-11T21:36:37.830Z,53.47
2018-11-11T21:39:12.925Z,50.60
2018-11-11T21:41:45.180Z,52.33
2018-11-11T21:44:17.380Z,51.30
2018-11-11T21:46:51.148Z,51.50
2018-11-11T21:49:23.828Z,50.00
2018-11-11T21:51:59.270Z,50.80
2018-11-11T21:54:29.846Z,49.17
2018-11-11T21:57:06.322Z,50.23
2018-11-11T21:59:39.053Z,52.90
2018-11-11T22:02:10.235Z,50.00
2018-11-11T22:04:43.328Z,50.90
2018-11-11T22:07:15.908Z,51.23
2018-11-11T22:09:47.361Z,54.17
2018-11-11T22:12:22.870Z,50.43
2018-11-11T22:14:57.216Z,51.70
2018-11-11T22:17:30.310Z,51.27
2018-11-11T22:20:02.278Z,54.53
2018-11-11T22:22:33.429Z,49.00
2018-11-11T22:25:05.994Z,50.90
2018-11-11T22:27:38.132Z,51.70
2018-11-11T22:30:10.968Z,53.00
2018-11-11T22:32:58.516Z,57.93
2018-11-11T22:35:43.432Z,53.10
2018-11-11T22:38:14.234Z,54.67
2018-11-11T22:40:47.240Z,53.20
2018-11-11T22:43:30.272Z,53.70
2018-11-11T22:46:02.308Z,52.43
2018-11-11T22:48:34.445Z,54.10
2018-11-11T22:51:06.584Z,51.27
2018-11-11T22:53:39.525Z,52.70
2018-11-11T22:56:11.843Z,56.90
2018-11-11T22:58:42.934Z,54.90
2018-11-11T23:01:20.421Z,83.00
2018-11-11T23:03:52.745Z,59.97
2018-11-11T23:06:23.287Z,53.70
2018-11-11T23:08:55.591Z,53.80
2018-11-11T23:11:27.456Z,48.53
2018-11-11T23:13:59.192Z,54.77
2018-11-11T23:16:31.415Z,54.77
2018-11-11T23:19:02.068Z,50.90
2018-11-11T23:21:39.317Z,49.13
2018-11-11T23:24:11.421Z,48.63
2018-11-11T23:26:45.563Z,49.67
2018-11-11T23:29:18.624Z,47.83
2018-11-11T23:31:51.287Z,46.30
2018-11-11T23:34:22.747Z,47.60
2018-11-11T23:36:55.614Z,49.40
2018-11-11T23:39:26.726Z,51.20
2018-11-11T23:42:02.327Z,51.67
2018-11-11T23:44:37.244Z,48.20
2018-11-11T23:47:09.380Z,49.30
2018-11-11T23:49:46.364Z,45.23
2018-11-11T23:52:19.796Z,44.37
2018-11-11T23:54:53.006Z,42.17
2018-11-11T23:57:23.660Z,41.70
2018-11-11T23:59:54.913Z,40.93
